createdAt,value
2018-12-06T00:01:58.270Z,11.97
2018-12-06T00:04:27.847Z,12.17
2018-12-06T00:06:55.961Z,11.77
2018-12-06T00:09:24.668Z,12.73
2018-12-06T00:11:55.097Z,14.03
2018-12-06T00:14:23.831Z,12.57
2018-12-06T00:16:55.081Z,17.10
2018-12-06T00:19:23.399Z,13.23
2018-12-06T00:21:52.541Z,12.60
2018-12-06T00:24:21.572Z,15.40
2018-12-06T00:26:50.053Z,14.80
2018-12-06T00:29:18.142Z,12.80
2018-12-06T00:31:46.641Z,12.87
2018-12-06T00:34:15.590Z,14.37
2018-12-06T00:36:44.320Z,13.83
2018-12-06T00:39:12.948Z,15.73
2018-12-06T00:41:42.199Z,14.50
2018-12-06T00:44:11.463Z,13.27
2018-12-06T00:46:40.397Z,9.67
2018-12-06T00:49:08.931Z,14.67
2018-12-06T00:51:37.983Z,13.30
2018-12-06T00:54:07.026Z,16.20
2018-12-06T00:56:35.343Z,12.40
2018-12-06T00:59:04.495Z,17.47
2018-12-06T01:01:33.112Z,15.37
2018-12-06T01:04:01.650Z,13.60
2018-12-06T01:06:30.176Z,14.40
2018-12-06T01:08:59.753Z,13.93
2018-12-06T01:11:29.226Z,11.73
2018-12-06T01:13:57.517Z,11.83
2018-12-06T01:16:27.935Z,12.30
2018-12-06T01:18:57.789Z,14.30
2018-12-06T01:21:26.343Z,15.97
2018-12-06T01:23:55.293Z,11.47
2018-12-06T01:26:23.707Z,13.93
2018-12-06T01:28:52.976Z,12.27
2018-12-06T01:31:21.805Z,14.17
2018-12-06T01:33:50.329Z,14.13
2018-12-06T01:36:18.521Z,12.57
2018-12-06T01:38:47.147Z,14.07
2018-12-06T01:41:15.365Z,27.20
2018-12-06T01:43:44.537Z,14.40
2018-12-06T01:46:12.958Z,13.47
2018-12-06T01:48:41.608Z,11.90
2018-12-06T01:51:10.193Z,14.40
2018-12-06T01:56:14.170Z,13.30
2018-12-06T01:58:43.210Z,14.13
2018-12-06T02:01:11.632Z,14.83
2018-12-06T02:03:40.170Z,12.93
2018-12-06T02:06:08.399Z,14.53
2018-12-06T02:08:37.000Z,13.70
2018-12-06T02:11:06.385Z,13.67
2018-12-06T02:13:35.825Z,16.67
2018-12-06T02:16:04.663Z,18.27
2018-12-06T02:18:34.443Z,14.87
2018-12-06T02:21:03.073Z,16.87
2018-12-06T02:23:33.167Z,16.23
2018-12-06T02:26:02.317Z,17.10
2018-12-06T02:28:31.121Z,16.83
2018-12-06T02:30:59.683Z,16.77
2018-12-06T02:33:28.316Z,17.73
2018-12-06T02:35:56.921Z,15.13
2018-12-06T02:38:27.662Z,18.17
2018-12-06T02:40:56.194Z,16.40
2018-12-06T02:43:24.716Z,18.10
2018-12-06T02:45:53.344Z,17.17
2018-12-06T02:48:21.975Z,16.30
2018-12-06T02:50:50.338Z,17.20
2018-12-06T02:53:19.127Z,16.00
2018-12-06T02:55:48.689Z,17.60
2018-12-06T02:58:18.598Z,20.47
2018-12-06T03:00:48.361Z,17.03
2018-12-06T03:03:17.742Z,21.83
2018-12-06T03:05:46.249Z,18.07
2018-12-06T03:08:15.192Z,23.17
2018-12-06T03:10:43.717Z,20.77
2018-12-06T03:13:12.139Z,19.80
2018-12-06T03:15:41.399Z,20.33
2018-12-06T03:18:09.529Z,16.03
2018-12-06T03:20:38.120Z,21.10
2018-12-06T03:23:06.915Z,17.60
2018-12-06T03:25:36.129Z,17.47
2018-12-06T03:28:04.545Z,18.30
2018-12-06T03:30:32.972Z,20.10
2018-12-06T03:33:02.052Z,19.57
2018-12-06T03:35:31.056Z,16.87
2018-12-06T03:37:59.619Z,18.40
2018-12-06T03:40:28.218Z,20.30
2018-12-06T03:42:57.272Z,23.60
2018-12-06T03:45:25.780Z,21.07
2018-12-06T03:47:55.569Z,21.10
2018-12-06T03:50:25.766Z,20.40
2018-12-06T03:52:54.399Z,20.03
2018-12-06T03:55:23.807Z,24.10
2018-12-06T03:57:52.283Z,21.57
2018-12-06T04:00:21.436Z,22.30
2018-12-06T04:02:49.972Z,20.23
2018-12-06T04:05:20.597Z,23.80
2018-12-06T04:07:49.104Z,21.27
2018-12-06T04:10:18.672Z,19.07
2018-12-06T04:12:49.478Z,18.93
2018-12-06T04:15:18.192Z,21.93
2018-12-06T04:17:47.195Z,24.43
2018-12-06T04:20:16.127Z,19.80
2018-12-06T04:22:44.846Z,21.00
2018-12-06T04:25:15.055Z,21.67
2018-12-06T04:27:45.038Z,22.30
2018-12-06T04:30:13.562Z,20.03
2018-12-06T04:32:42.642Z,18.23
2018-12-06T04:35:11.866Z,21.60
2018-12-06T04:37:41.782Z,20.40
2018-12-06T04:40:11.002Z,19.90
2018-12-06T04:42:41.521Z,18.67
2018-12-06T04:45:14.961Z,20.77
2018-12-06T04:47:45.105Z,18.43
2018-12-06T04:50:13.196Z,23.87
2018-12-06T04:52:42.434Z,22.60
2018-12-06T04:55:11.668Z,20.53
2018-12-06T04:57:39.765Z,18.60
2018-12-06T05:00:09.570Z,22.73
2018-12-06T05:02:40.082Z,23.20
2018-12-06T05:05:10.681Z,24.37
2018-12-06T05:07:38.786Z,21.83
2018-12-06T05:10:07.938Z,20.00
2018-12-06T05:12:39.022Z,19.97
2018-12-06T05:15:09.920Z,22.57
2018-12-06T05:17:39.381Z,22.37
2018-12-06T05:20:08.525Z,21.93
2018-12-06T05:22:37.945Z,23.53
2018-12-06T05:25:09.012Z,22.37
2018-12-06T05:27:39.322Z,22.27
2018-12-06T05:30:09.077Z,23.93
2018-12-06T05:32:40.343Z,22.50
2018-12-06T05:35:11.471Z,22.23
2018-12-06T05:37:41.053Z,21.83
2018-12-06T05:40:10.398Z,23.20
2018-12-06T05:42:39.567Z,21.97
2018-12-06T05:45:09.663Z,26.20
2018-12-06T05:47:40.260Z,25.60
2018-12-06T05:50:09.214Z,21.33
2018-12-06T05:52:38.263Z,23.10
2018-12-06T05:55:06.660Z,25.03
2018-12-06T05:57:35.099Z,22.13
2018-12-06T06:00:04.886Z,24.87
2018-12-06T06:02:33.399Z,24.83
2018-12-06T06:05:02.342Z,44.37
2018-12-06T06:07:31.704Z,24.53
2018-12-06T06:10:01.494Z,23.90
2018-12-06T06:12:29.689Z,23.43
2018-12-06T06:14:58.951Z,22.20
2018-12-06T06:17:28.834Z,21.30
2018-12-06T06:19:57.465Z,24.17
2018-12-06T06:22:26.624Z,25.00
2018-12-06T06:24:55.038Z,21.73
2018-12-06T06:27:23.459Z,22.33
2018-12-06T06:29:51.771Z,23.07
2018-12-06T06:32:21.044Z,25.57
2018-12-06T06:34:49.551Z,26.63
2018-12-06T06:37:18.087Z,24.27
2018-12-06T06:39:49.078Z,22.47
2018-12-06T06:42:17.648Z,24.23
2018-12-06T06:44:46.063Z,22.27
2018-12-06T06:47:14.395Z,22.57
2018-12-06T06:49:42.652Z,23.93
2018-12-06T06:52:11.745Z,23.83
2018-12-06T06:54:40.161Z,23.87
2018-12-06T06:57:09.200Z,25.40
2018-12-06T06:59:38.364Z,26.73
2018-12-06T07:02:06.999Z,25.23
2018-12-06T07:04:35.395Z,25.20
2018-12-06T07:07:03.680Z,24.10
2018-12-06T07:09:32.254Z,25.80
2018-12-06T07:12:01.309Z,28.33
2018-12-06T07:14:29.549Z,27.43
2018-12-06T07:16:58.255Z,24.10
2018-12-06T07:19:26.656Z,28.20
2018-12-06T07:21:56.224Z,27.07
2018-12-06T07:24:25.296Z,27.67
2018-12-06T07:26:53.513Z,27.80
2018-12-06T07:29:22.033Z,24.90
2018-12-06T07:31:50.272Z,29.20
2018-12-06T07:34:19.286Z,24.07
2018-12-06T07:36:48.144Z,28.63
2018-12-06T07:39:17.320Z,26.53
2018-12-06T07:41:45.576Z,29.47
2018-12-06T07:44:14.613Z,25.23
2018-12-06T07:46:44.123Z,26.47
2018-12-06T07:49:12.534Z,25.63
2018-12-06T07:51:41.059Z,27.87
2018-12-06T07:54:10.004Z,31.70
2018-12-06T07:56:38.531Z,29.97
2018-12-06T07:59:07.006Z,27.47
2018-12-06T08:01:36.232Z,28.83
2018-12-06T08:04:05.374Z,33.07
2018-12-06T08:06:34.237Z,26.90
2018-12-06T08:09:02.621Z,33.80
2018-12-06T08:11:31.122Z,27.67
2018-12-06T08:13:59.775Z,28.00
2018-12-06T08:16:28.406Z,29.50
2018-12-06T08:18:56.653Z,26.23
2018-12-06T08:21:25.779Z,30.00
2018-12-06T08:23:54.397Z,30.87
2018-12-06T08:26:22.515Z,31.33
2018-12-06T08:28:51.556Z,30.13
2018-12-06T08:31:20.042Z,34.33
2018-12-06T08:33:48.438Z,31.40
2018-12-06T08:36:17.961Z,28.73
2018-12-06T08:38:47.224Z,31.57
2018-12-06T08:41:15.305Z,28.97
2018-12-06T08:43:43.960Z,29.80
2018-12-06T08:46:12.383Z,33.10
2018-12-06T08:48:40.898Z,31.83
2018-12-06T08:51:09.849Z,32.07
2018-12-06T08:53:40.257Z,29.93
2018-12-06T08:56:09.513Z,29.20
2018-12-06T08:58:37.826Z,35.50
2018-12-06T09:01:06.242Z,31.57
2018-12-06T09:03:34.884Z,33.53
2018-12-06T09:06:03.530Z,32.70
2018-12-06T09:08:33.404Z,32.27
2018-12-06T09:11:02.233Z,28.90
2018-12-06T09:13:30.478Z,33.53
2018-12-06T09:15:59.187Z,32.43
2018-12-06T09:18:28.228Z,34.33
2018-12-06T09:20:56.457Z,35.13
2018-12-06T09:23:25.489Z,26.40
2018-12-06T09:25:54.123Z,31.33
2018-12-06T09:28:22.750Z,32.67
2018-12-06T09:30:51.177Z,26.03
2018-12-06T09:33:20.882Z,34.63
2018-12-06T09:35:49.895Z,32.60
2018-12-06T09:38:18.418Z,33.70
2018-12-06T09:40:46.878Z,30.33
2018-12-06T09:43:15.363Z,29.67
2018-12-06T09:45:43.452Z,34.20
2018-12-06T09:48:11.721Z,31.17
2018-12-06T09:50:40.314Z,33.70
2018-12-06T09:53:10.514Z,32.13
2018-12-06T09:55:39.458Z,34.63
2018-12-06T09:58:08.270Z,32.57
2018-12-06T10:00:36.852Z,40.70
2018-12-06T10:03:05.441Z,33.03
2018-12-06T10:05:33.573Z,35.40
2018-12-06T10:08:02.073Z,36.47
2018-12-06T10:10:31.653Z,35.90
2018-12-06T10:13:01.644Z,34.73
2018-12-06T10:15:30.271Z,39.07
2018-12-06T10:17:59.220Z,45.23
2018-12-06T10:20:29.072Z,44.50
2018-12-06T10:22:58.041Z,38.33
2018-12-06T10:25:28.294Z,41.00
2018-12-06T10:27:57.390Z,36.90
2018-12-06T10:30:26.337Z,43.13
2018-12-06T10:32:54.541Z,33.10
2018-12-06T10:35:23.660Z,41.93
2018-12-06T10:37:51.768Z,42.00
2018-12-06T10:40:20.272Z,35.57
2018-12-06T10:42:49.881Z,37.77
2018-12-06T10:45:19.406Z,41.47
2018-12-06T10:47:49.251Z,35.17
2018-12-06T10:50:18.926Z,32.67
2018-12-06T10:52:47.544Z,30.47
2018-12-06T10:55:16.604Z,28.90
2018-12-06T10:57:44.872Z,32.80
2018-12-06T11:00:15.967Z,33.67
2018-12-06T11:02:48.247Z,31.27
2018-12-06T11:05:16.748Z,27.60
2018-12-06T11:07:44.960Z,26.07
2018-12-06T11:10:13.919Z,25.57
2018-12-06T11:12:42.968Z,28.67
2018-12-06T11:15:12.540Z,27.10
2018-12-06T11:17:41.171Z,28.93
2018-12-06T11:20:10.946Z,28.83
2018-12-06T11:22:39.578Z,26.60
2018-12-06T11:25:12.177Z,27.93
2018-12-06T11:27:40.719Z,25.93
2018-12-06T11:30:09.420Z,23.20
2018-12-06T11:32:37.529Z,26.33
2018-12-06T11:35:06.697Z,27.17
2018-12-06T11:37:35.642Z,26.60
2018-12-06T11:40:05.645Z,27.37
2018-12-06T11:42:34.157Z,27.90
2018-12-06T11:45:02.678Z,24.00
2018-12-06T11:47:30.978Z,32.97
2018-12-06T11:49:59.939Z,30.83
2018-12-06T11:52:29.628Z,27.10
2018-12-06T11:54:59.402Z,29.53
2018-12-06T11:57:29.284Z,28.93
2018-12-06T11:59:58.613Z,27.73
2018-12-06T12:02:26.825Z,29.73
2018-12-06T12:04:55.461Z,30.43
2018-12-06T12:07:23.673Z,25.43
2018-12-06T12:09:52.219Z,30.77
2018-12-06T12:12:20.481Z,28.60
2018-12-06T12:14:50.904Z,25.60
2018-12-06T12:17:19.458Z,21.23
2018-12-06T12:19:48.298Z,23.70
2018-12-06T12:22:17.555Z,21.50
2018-12-06T12:24:46.602Z,18.00
2018-12-06T12:27:15.560Z,27.90
2018-12-06T12:29:44.078Z,19.97
2018-12-06T12:32:12.476Z,20.10
2018-12-06T12:34:42.481Z,21.60
2018-12-06T12:37:10.553Z,20.80
2018-12-06T12:39:39.528Z,21.67
2018-12-06T12:42:08.172Z,18.83
2018-12-06T12:44:37.106Z,17.60
2018-12-06T12:47:05.746Z,19.23
2018-12-06T12:49:35.316Z,19.20
2018-12-06T12:52:03.941Z,25.30
2018-12-06T12:54:32.992Z,16.27
2018-12-06T12:57:02.040Z,18.47
2018-12-06T12:59:30.881Z,18.30
2018-12-06T13:02:00.463Z,23.30
2018-12-06T13:04:29.761Z,23.93
2018-12-06T13:07:04.076Z,17.80
2018-12-06T13:09:34.586Z,16.83
2018-12-06T13:12:02.826Z,19.77
2018-12-06T13:14:31.313Z,19.97
2018-12-06T13:16:59.537Z,21.30
2018-12-06T13:19:28.579Z,17.97
2018-12-06T13:21:58.259Z,22.50
2018-12-06T13:24:27.516Z,20.53
2018-12-06T13:26:56.255Z,19.63
2018-12-06T13:29:25.298Z,16.23
2018-12-06T13:31:55.297Z,25.37
2018-12-06T13:34:25.587Z,21.27
2018-12-06T13:36:54.435Z,21.40
2018-12-06T13:39:23.159Z,24.10
2018-12-06T13:41:52.626Z,21.93
2018-12-06T13:44:21.361Z,17.00
2018-12-06T13:46:49.556Z,20.43
2018-12-06T13:49:18.511Z,20.50
2018-12-06T13:51:47.573Z,20.27
2018-12-06T13:54:16.085Z,23.60
2018-12-06T13:56:44.665Z,23.40
2018-12-06T13:59:13.329Z,21.47
2018-12-06T14:01:42.285Z,23.40
2018-12-06T14:04:10.488Z,15.93
2018-12-06T14:06:39.135Z,20.10
2018-12-06T14:09:08.395Z,22.20
2018-12-06T14:11:37.225Z,18.20
2018-12-06T14:14:05.432Z,20.97
2018-12-06T14:16:35.545Z,16.47
2018-12-06T14:19:04.579Z,16.07
2018-12-06T14:21:32.804Z,21.57
2018-12-06T14:24:01.323Z,24.20
2018-12-06T14:26:29.396Z,25.03
2018-12-06T14:28:58.496Z,27.30
2018-12-06T14:31:27.629Z,24.97
2018-12-06T14:33:56.497Z,23.53
2018-12-06T14:36:24.890Z,24.83
2018-12-06T14:38:54.347Z,23.67
2018-12-06T14:41:22.986Z,27.00
2018-12-06T14:43:51.617Z,25.00
2018-12-06T14:46:20.221Z,25.17
2018-12-06T14:48:48.641Z,25.70
2018-12-06T14:51:17.297Z,25.47
2018-12-06T14:53:45.823Z,22.40
2018-12-06T14:56:15.219Z,25.60
2018-12-06T14:58:44.443Z,29.13
2018-12-06T15:01:13.370Z,27.17
2018-12-06T15:03:42.677Z,26.50
2018-12-06T15:06:11.273Z,25.70
2018-12-06T15:09:35.053Z,23.97
2018-12-06T15:12:05.356Z,53.97
2018-12-06T15:14:33.671Z,27.30
2018-12-06T15:17:02.193Z,22.73
2018-12-06T15:19:30.713Z,23.33
2018-12-06T15:21:59.139Z,24.60
2018-12-06T15:24:27.667Z,24.97
2018-12-06T15:26:56.400Z,24.53
2018-12-06T15:29:24.487Z,21.07
2018-12-06T15:31:53.452Z,21.00
2018-12-06T15:34:22.500Z,23.83
2018-12-06T15:36:51.651Z,22.43
2018-12-06T15:39:20.665Z,15.93
2018-12-06T15:41:49.053Z,22.13
2018-12-06T15:44:18.170Z,18.00
2018-12-06T15:46:47.105Z,21.93
2018-12-06T15:49:15.638Z,23.77
2018-12-06T15:51:44.720Z,20.93
2018-12-06T15:54:15.195Z,22.33
2018-12-06T15:56:43.826Z,17.63
2018-12-06T15:59:12.005Z,22.10
2018-12-06T16:01:40.153Z,21.87
2018-12-06T16:04:09.306Z,20.13
2018-12-06T16:06:38.540Z,24.57
2018-12-06T16:09:06.700Z,20.47
2018-12-06T16:11:35.918Z,22.23
2018-12-06T16:14:04.764Z,15.67
2018-12-06T16:16:33.595Z,20.53
2018-12-06T16:19:02.128Z,18.97
2018-12-06T16:21:32.069Z,23.40
2018-12-06T16:24:00.791Z,21.37
2018-12-06T16:26:29.227Z,21.10
2018-12-06T16:28:57.677Z,19.73
2018-12-06T16:31:26.942Z,24.23
2018-12-06T16:33:57.148Z,28.07
2018-12-06T16:36:27.139Z,25.23
2018-12-06T16:38:55.653Z,21.73
2018-12-06T16:41:25.746Z,25.53
2018-12-06T16:43:55.205Z,17.70
2018-12-06T16:46:25.073Z,19.80
2018-12-06T16:48:53.936Z,22.73
2018-12-06T16:51:22.019Z,19.83
2018-12-06T16:53:50.684Z,23.53
2018-12-06T16:56:18.794Z,17.63
2018-12-06T16:58:47.399Z,13.80
2018-12-06T17:01:15.935Z,19.93
2018-12-06T17:03:45.424Z,20.83
2018-12-06T17:06:13.925Z,15.27
2018-12-06T17:08:44.227Z,19.97
2018-12-06T17:11:13.172Z,14.90
2018-12-06T17:13:41.800Z,16.67
2018-12-06T17:16:11.897Z,18.23
2018-12-06T17:18:41.880Z,19.27
2018-12-06T17:21:10.199Z,19.27
2018-12-06T17:23:38.756Z,19.63
2018-12-06T17:26:08.918Z,17.13
2018-12-06T17:28:37.760Z,17.03
2018-12-06T17:31:07.300Z,14.97
2018-12-06T17:33:35.759Z,15.03
2018-12-06T17:36:04.269Z,16.70
2018-12-06T17:38:32.889Z,14.47
2018-12-06T17:41:02.169Z,12.93
2018-12-06T17:43:30.793Z,14.87
2018-12-06T17:46:00.888Z,18.30
2018-12-06T17:48:29.647Z,13.63
2018-12-06T17:50:57.789Z,18.37
2018-12-06T17:53:26.264Z,13.30
2018-12-06T17:55:54.879Z,17.33
2018-12-06T17:58:24.143Z,18.90
2018-12-06T18:00:52.443Z,21.77
2018-12-06T18:03:20.982Z,17.47
2018-12-06T18:05:49.418Z,15.60
2018-12-06T18:08:17.808Z,13.97
2018-12-06T18:10:46.327Z,14.40
2018-12-06T18:13:15.605Z,10.00
2018-12-06T18:15:44.238Z,12.40
2018-12-06T18:18:12.742Z,13.40
2018-12-06T18:20:41.186Z,9.40
2018-12-06T18:23:11.387Z,11.23
2018-12-06T18:25:39.914Z,15.07
2018-12-06T18:28:08.955Z,10.97
2018-12-06T18:30:38.942Z,13.83
2018-12-06T18:33:07.258Z,13.97
2018-12-06T18:35:35.773Z,13.63
2018-12-06T18:38:04.724Z,12.00
2018-12-06T18:40:34.141Z,11.03
2018-12-06T18:43:02.637Z,15.57
2018-12-06T18:45:31.769Z,14.23
2018-12-06T18:48:01.338Z,11.37
2018-12-06T18:50:30.910Z,11.17
2018-12-06T18:53:00.896Z,11.80
2018-12-06T18:55:29.741Z,12.83
2018-12-06T18:57:58.642Z,11.77
2018-12-06T19:00:26.806Z,16.87
2018-12-06T19:02:55.944Z,11.40
2018-12-06T19:05:25.613Z,14.87
2018-12-06T19:07:55.183Z,18.60
2018-12-06T19:10:25.485Z,12.77
2018-12-06T19:12:53.669Z,14.87
2018-12-06T19:15:22.651Z,19.87
2018-12-06T19:17:50.777Z,13.93
2018-12-06T19:20:19.044Z,20.17
2018-12-06T19:22:47.683Z,18.30
2018-12-06T19:25:16.117Z,17.43
2018-12-06T19:27:44.637Z,16.03
2018-12-06T19:30:14.532Z,19.67
2018-12-06T19:32:43.154Z,18.23
2018-12-06T19:35:11.664Z,16.70
2018-12-06T19:37:41.042Z,17.13
2018-12-06T19:40:09.541Z,16.93
2018-12-06T19:42:38.902Z,19.53
2018-12-06T19:45:08.394Z,22.00
2018-12-06T19:47:37.543Z,23.10
2018-12-06T19:50:07.857Z,21.23
2018-12-06T19:52:36.373Z,22.37
2018-12-06T19:55:05.631Z,19.73
2018-12-06T19:57:34.265Z,21.17
2018-12-06T20:00:03.415Z,19.30
2018-12-06T20:02:32.146Z,17.57
2018-12-06T20:05:00.673Z,16.87
2018-12-06T20:07:30.469Z,36.80
2018-12-06T20:10:00.335Z,16.87
2018-12-06T20:12:30.157Z,16.07
2018-12-06T20:14:59.161Z,16.17
2018-12-06T20:17:28.207Z,15.60
2018-12-06T20:19:56.637Z,16.07
2018-12-06T20:22:25.575Z,19.93
2018-12-06T20:24:53.640Z,16.70
2018-12-06T20:27:22.312Z,15.33
2018-12-06T20:29:50.721Z,17.13
2018-12-06T20:32:19.901Z,15.53
2018-12-06T20:34:48.933Z,16.93
2018-12-06T20:37:17.340Z,17.10
2018-12-06T20:39:45.879Z,15.43
2018-12-06T20:42:14.305Z,16.37
2018-12-06T20:44:42.829Z,17.17
2018-12-06T20:47:13.872Z,14.93
2018-12-06T20:49:42.004Z,15.00
2018-12-06T20:52:10.701Z,17.23
2018-12-06T20:54:39.662Z,16.33
2018-12-06T20:57:08.816Z,15.87
2018-12-06T20:59:37.844Z,19.03
2018-12-06T21:02:05.921Z,16.57
2018-12-06T21:04:34.665Z,16.47
2018-12-06T21:07:02.932Z,14.93
2018-12-06T21:09:32.372Z,15.07
2018-12-06T21:12:01.515Z,15.00
2018-12-06T21:14:30.459Z,15.80
2018-12-06T21:16:59.096Z,15.30
2018-12-06T21:19:28.243Z,14.43
2018-12-06T21:21:56.464Z,15.77
2018-12-06T21:24:25.294Z,12.63
2018-12-06T21:26:53.518Z,16.67
2018-12-06T21:29:22.552Z,15.07
2018-12-06T21:31:52.653Z,13.53
2018-12-06T21:34:22.640Z,15.83
2018-12-06T21:36:51.584Z,12.57
2018-12-06T21:39:20.522Z,13.73
2018-12-06T21:41:49.445Z,13.33
2018-12-06T21:44:17.724Z,12.77
2018-12-06T21:46:46.613Z,16.00
2018-12-06T21:49:15.558Z,13.27
2018-12-06T21:51:45.550Z,15.50
2018-12-06T21:54:13.865Z,15.40
2018-12-06T21:56:44.478Z,13.63
2018-12-06T21:59:13.739Z,13.80
2018-12-06T22:01:42.264Z,14.87
2018-12-06T22:04:10.795Z,15.23
2018-12-06T22:06:40.061Z,14.37
2018-12-06T22:09:09.607Z,15.20
2018-12-06T22:11:38.560Z,16.50
2018-12-06T22:14:07.606Z,13.60
2018-12-06T22:16:36.342Z,17.20
2018-12-06T22:19:06.435Z,15.43
2018-12-06T22:21:34.961Z,16.77
2018-12-06T22:24:03.696Z,15.33
2018-12-06T22:26:31.844Z,13.83
2018-12-06T22:29:00.856Z,15.17
2018-12-06T22:31:29.799Z,14.37
2018-12-06T22:33:58.743Z,16.37
2018-12-06T22:36:29.293Z,16.33
2018-12-06T22:38:58.089Z,15.63
2018-12-06T22:41:26.627Z,16.10
2018-12-06T22:43:55.661Z,14.23
2018-12-06T22:46:23.879Z,13.93
2018-12-06T22:48:53.545Z,13.87
2018-12-06T22:51:24.473Z,14.37
2018-12-06T22:53:53.229Z,15.77
2018-12-06T22:56:23.723Z,15.17
2018-12-06T22:58:52.885Z,13.90
2018-12-06T23:01:23.181Z,15.67
2018-12-06T23:03:53.162Z,14.37
2018-12-06T23:06:23.368Z,18.50
2018-12-06T23:08:52.406Z,15.50
2018-12-06T23:11:21.765Z,14.73
2018-12-06T23:13:50.498Z,15.50
2018-12-06T23:16:19.439Z,13.23
2018-12-06T23:18:49.226Z,13.80
2018-12-06T23:21:17.851Z,14.07
2018-12-06T23:23:46.724Z,9.60
2018-12-06T23:26:16.497Z,10.53
2018-12-06T23:28:46.459Z,17.17
2018-12-06T23:31:15.838Z,14.63
2018-12-06T23:33:43.922Z,11.03
2018-12-06T23:36:12.379Z,11.27
2018-12-06T23:38:40.682Z,10.63
2018-12-06T23:41:09.499Z,9.00
2018-12-06T23:43:38.764Z,10.73
2018-12-06T23:46:07.379Z,10.90
2018-12-06T23:48:37.593Z,9.63
2018-12-06T23:51:12.694Z,9.60
2018-12-06T23:53:42.264Z,8.43
2018-12-06T23:56:10.790Z,10.27
2018-12-06T23:58:40.580Z,6.93
